KSANKFCH

Guest
Details From KSAN - San Diego Intl
To KFCH - Fresno Chandler Executive
Flight Number -
Tags Generated
Created
Modified
Stats Distance 273 nm / 505 km
Max Altitude 0 ft / 0 m
Waypoints 3
Social Downloads 0
Likes 0
Share VATSIM

Download

Looking for another format? Having issues loading an existing format? Contact us
Advertisement - Login to hide

Notes

Generated

Route

KSAN INBUR KFCH

ID Type Via Altitude Latitude Longitude Leg Dist Tot Dist Heading (true) Name
O KSAN APT - 0 ft / 0 m 32.73712˚ -117.20435˚ - 0 nm - -
INBUR FIX - 0 ft / 0 m 36.44236˚ -119.62539˚ 252 nm 252 nm 332° / 331° -
O KFCH APT - 0 ft / 0 m 36.73496˚ -119.82349˚ 20 nm 272 nm 332° / 331° Fresno Chandler Executive

Altitude Profile

Advertisement - Login to hide

Weather


0- 5 10 15 20 25 30 35+ Temperature / ° C

Clouds and Precipitation
Forecast for 2018-05-24 12:00 UTC. Updated 2 hours ago

Ground ~20,000 ft ~40,000 ft Winds

KSAN

Details ICAO KSAN (SAN)
Name San Diego Intl
Region United States
Timezone America/Los_Angeles (UTC-7.0)
Stats Elevation 17 ft / 5 m (AMSL)
Location 32.733556° -117.189658°
Runways 1
Magnetic Variation 11.487° E

METAR

KSAN 240951Z 00000KT 10SM FEW010 BKN016 OVC025 16/12 A3004 RMK AO2 SLP172 T01610122

Decode

TAF

TAF AMD KSAN 240656Z 2407/2512 VRB04KT P6SM SCT015 OVC020 FM241100 VRB04KT P6SM OVC015 FM241800 29010KT P6SM BKN025 FM250200 VRB04KT P6SM OVC020

Decode

Departure Runways

ID Width Length Bearing (true) Bearing (mag) Surface Threshold Offset Overrun Length
09 200 ft / 61 m 9,387 ft / 2,861 m 106.07° 94.58° Asphalt 699 ft / 213 m 269 ft / 82 m
27 200 ft / 61 m 9,387 ft / 2,861 m 286.08° 274.59° Asphalt 1,811 ft / 552 m 0 ft / 0 m

KFCH

Details ICAO KFCH
Name Fresno Chandler Executive
Region United States
Timezone America/Los_Angeles (UTC-7.0)
Stats Elevation 277 ft / 84 m (AMSL)
Location 36.732391° -119.820212°
Runways 3
Magnetic Variation 12.800° E

METAR

KFCH 241035Z AUTO 31008KT 10SM 14/10 A2992 RMK A01

Decode

TAF

Not found

Destination Runways

ID Width Length Bearing (true) Bearing (mag) Surface Threshold Offset Overrun Length
12 75 ft / 23 m 3,626 ft / 1,105 m 125.78° 112.98° Asphalt 417 ft / 127 m 148 ft / 45 m
12L 70 ft / 21 m 2,588 ft / 789 m 125.80° 113.00° Concrete 0 ft / 0 m 0 ft / 0 m
12R 75 ft / 23 m 3,200 ft / 975 m 125.77° 112.97° Asphalt 240 ft / 73 m 0 ft / 0 m
30 75 ft / 23 m 3,626 ft / 1,105 m 305.79° 292.99° Asphalt 538 ft / 164 m 0 ft / 0 m
30L 75 ft / 23 m 3,200 ft / 975 m 305.77° 292.97° Asphalt 299 ft / 91 m 0 ft / 0 m
30R 70 ft / 21 m 2,588 ft / 789 m 305.80° 293.00° Concrete 0 ft / 0 m 0 ft / 0 m